Time;durP1;ratioP1;P1;durP2;ratioP2;P2;SDS_P1;SDS_P2;PMS_P1;PMS_P2;Temp;Humidity;BMP_temperature;BMP_pressure;BME280_temperature;BME280_humidity;BME280_pressure;Samples;Min_cycle;Max_cycle;Signal;HPM_P1;HPM_P2
2023/01/08 00:01:05;;;;;;;;;16.50;13.00;;;;;3.77;99.67;98435.56;4978113;27;102101;-71
2023/01/08 00:03:34;;;;;;;;;15.00;12.50;;;;;3.80;99.73;98427.22;4972184;27;104185;-70
2023/01/08 00:06:04;;;;;;;;;15.25;12.50;;;;;3.85;98.99;98421.38;4979166;27;102138;-71
2023/01/08 00:08:32;;;;;;;;;15.00;13.50;;;;;3.88;98.76;98429.06;4981152;27;102050;-73
2023/01/08 00:10:59;;;;;;;;;14.50;11.50;;;;;3.93;98.20;98421.41;4976094;27;104201;-70
2023/01/08 00:13:26;;;;;;;;;13.00;10.00;;;;;3.97;97.82;98425.41;4974250;28;103983;-70
2023/01/08 00:15:53;;;;;;;;;10.25;9.00;;;;;3.99;97.77;98415.41;4974983;27;102226;-70
2023/01/08 00:18:21;;;;;;;;;17.50;13.00;;;;;3.95;97.09;98406.88;4983507;27;101858;-70
2023/01/08 00:20:48;;;;;;;;;21.50;19.00;;;;;4.04;96.83;98418.44;4982223;28;102533;-71
2023/01/08 00:23:17;;;;;;;;;20.75;15.00;;;;;4.06;96.22;98413.72;4980544;28;103967;-72
2023/01/08 00:25:44;;;;;;;;;26.25;19.25;;;;;3.91;95.81;98385.97;4982222;28;101973;-71
2023/01/08 00:28:13;;;;;;;;;20.75;17.25;;;;;4.09;95.54;98418.78;4974323;28;101923;-69
2023/01/08 00:30:41;;;;;;;;;18.00;16.25;;;;;4.11;95.25;98416.75;4992163;27;102366;-70
2023/01/08 00:33:09;;;;;;;;;19.00;17.50;;;;;4.13;94.59;98404.06;4974350;28;104031;-68
2023/01/08 00:35:39;;;;;;;;;16.50;16.00;;;;;4.14;94.67;98405.75;4982223;27;102391;-70
2023/01/08 00:38:06;;;;;;;;;21.25;16.75;;;;;4.13;94.33;98390.69;4976292;27;103035;-71
2023/01/08 00:40:34;;;;;;;;;14.50;8.25;;;;;4.14;94.04;98388.84;4975976;28;102733;-70
2023/01/08 00:43:02;;;;;;;;;16.00;15.50;;;;;4.13;93.39;98395.19;4972972;28;104339;-70
2023/01/08 00:45:29;;;;;;;;;23.00;18.25;;;;;4.09;93.95;98388.50;4970104;28;102390;-70
2023/01/08 00:47:57;;;;;;;;;16.50;11.50;;;;;4.07;93.17;98387.81;4976967;27;102577;-70
2023/01/08 00:50:24;;;;;;;;;15.75;11.75;;;;;3.92;92.85;98369.75;4973432;28;104131;-71
2023/01/08 00:52:51;;;;;;;;;13.25;12.50;;;;;3.93;93.08;98387.47;4975471;27;104121;-70
2023/01/08 00:55:19;;;;;;;;;13.25;10.25;;;;;3.88;93.36;98389.78;4966051;28;102587;-69
2023/01/08 00:57:45;;;;;;;;;9.50;7.50;;;;;3.83;92.48;98399.31;4970339;27;102456;-70
2023/01/08 01:00:14;;;;;;;;;8.50;7.25;;;;;3.67;92.84;98389.41;4970843;28;102445;-70
2023/01/08 01:02:42;;;;;;;;;8.25;7.50;;;;;3.68;92.52;98401.78;4973294;27;103931;-71
2023/01/08 01:05:14;;;;;;;;;9.50;8.00;;;;;3.60;92.73;98405.25;4974155;28;102333;-69
2023/01/08 01:07:41;;;;;;;;;6.50;5.75;;;;;3.42;93.02;98393.00;4973146;28;102181;-70
2023/01/08 01:10:10;;;;;;;;;5.75;5.00;;;;;3.44;93.21;98410.56;4985598;27;102462;-70
2023/01/08 01:12:38;;;;;;;;;5.25;3.25;;;;;3.37;93.46;98400.69;4963164;27;103938;-69
2023/01/08 01:15:11;;;;;;;;;3.00;1.00;;;;;3.31;94.01;98403.97;4963066;28;102275;-69
2023/01/08 01:17:40;;;;;;;;;6.25;5.00;;;;;3.23;94.40;98403.94;4977218;27;102437;-70
2023/01/08 01:20:09;;;;;;;;;7.00;7.00;;;;;3.13;94.77;98390.69;4971879;27;102233;-70
2023/01/08 01:22:37;;;;;;;;;4.25;3.00;;;;;3.08;94.35;98388.50;4977765;27;104007;-70
2023/01/08 01:25:05;;;;;;;;;4.50;2.25;;;;;3.03;94.61;98384.63;4982864;28;102466;-70
2023/01/08 01:27:32;;;;;;;;;5.00;2.00;;;;;2.96;95.12;98375.59;4968778;28;102208;-70
2023/01/08 01:29:59;;;;;;;;;3.00;3.00;;;;;2.90;95.43;98376.22;4983915;27;102112;-70
2023/01/08 01:32:26;;;;;;;;;5.00;3.00;;;;;2.85;96.10;98378.53;4981566;27;104104;-69
2023/01/08 01:34:53;;;;;;;;;3.00;1.75;;;;;2.79;96.06;98371.16;4995257;27;102366;-69
2023/01/08 01:37:20;;;;;;;;;7.25;5.25;;;;;2.74;95.94;98376.13;4968070;28;102277;-69
2023/01/08 01:39:47;;;;;;;;;5.50;2.50;;;;;2.69;96.23;98368.59;4975821;27;102370;-70
2023/01/08 01:45:16;;;;;;;;;6.25;5.50;;;;;2.57;96.67;98353.81;4970880;27;102220;-70
2023/01/08 01:47:48;;;;;;;;;4.50;2.75;;;;;2.51;96.66;98355.31;4977461;27;108707;-69
2023/01/08 01:50:26;;;;;;;;;5.25;2.00;;;;;2.48;96.63;98357.41;4973902;27;102889;-70
2023/01/08 01:53:03;;;;;;;;;7.00;6.25;;;;;2.42;95.89;98358.91;4981968;27;110534;-69
2023/01/08 01:55:31;;;;;;;;;7.00;5.50;;;;;2.37;96.31;98353.19;4979962;27;102792;-69
2023/01/08 01:58:12;;;;;;;;;4.50;3.50;;;;;2.30;96.34;98365.47;4980791;28;102472;-71
2023/01/08 02:00:40;;;;;;;;;3.00;3.00;;;;;2.23;97.02;98353.75;4974443;27;102611;-69
2023/01/08 02:03:10;;;;;;;;;2.00;2.00;;;;;2.11;96.05;98333.66;4961058;28;104040;-70
2023/01/08 02:05:53;;;;;;;;;4.00;3.00;;;;;2.12;96.26;98345.97;4970451;28;102240;-70
2023/01/08 02:09:00;;;;;;;;;3.00;2.00;;;;;2.08;96.10;98336.63;4969629;28;102117;-70
2023/01/08 02:12:19;;;;;;;;;3.50;3.00;;;;;2.03;96.64;98339.75;4992260;27;102276;-69
2023/01/08 02:15:25;;;;;;;;;2.00;2.00;;;;;1.99;96.69;98337.53;4967339;28;107951;-70
2023/01/08 02:18:34;;;;;;;;;1.50;1.50;;;;;1.95;97.27;98341.50;4974509;28;102492;-69
2023/01/08 02:21:58;;;;;;;;;1.25;0.75;;;;;1.92;96.65;98336.50;4979910;27;102166;-70
2023/01/08 02:25:11;;;;;;;;;2.00;2.00;;;;;1.89;97.73;98326.16;4972561;28;102409;-70
2023/01/08 02:27:55;;;;;;;;;3.00;3.00;;;;;1.88;98.33;98330.63;4968212;28;107471;-70
2023/01/08 02:30:31;;;;;;;;;13.00;12.00;;;;;1.84;97.75;98328.44;4969808;27;102456;-70
2023/01/08 02:32:58;;;;;;;;;10.50;5.50;;;;;1.88;99.20;98332.47;4973226;28;104031;-70
2023/01/08 02:35:39;;;;;;;;;12.25;11.25;;;;;1.84;98.65;98329.28;4958002;28;102409;-71
2023/01/08 02:38:12;;;;;;;;;10.00;9.00;;;;;1.84;98.73;98329.28;4966669;27;108344;-70
2023/01/08 02:40:53;;;;;;;;;6.25;6.00;;;;;1.82;99.08;98327.72;4977875;27;102380;-70
2023/01/08 02:43:31;;;;;;;;;6.50;5.00;;;;;1.80;98.10;98333.22;4968853;27;102537;-70
2023/01/08 02:46:01;;;;;;;;;4.25;4.00;;;;;1.70;98.16;98314.66;4967558;28;103103;-69
2023/01/08 02:48:39;;;;;;;;;6.00;4.75;;;;;1.76;98.29;98332.69;4975882;28;110839;-69
2023/01/08 02:51:29;;;;;;;;;3.75;3.25;;;;;1.73;97.58;98334.81;4973680;28;103987;-69
2023/01/08 02:54:01;;;;;;;;;5.25;3.00;;;;;1.68;98.14;98335.28;4962852;28;102392;-71
2023/01/08 02:56:35;;;;;;;;;2.50;2.00;;;;;1.67;97.61;98332.75;4965733;27;102351;-70
2023/01/08 02:59:06;;;;;;;;;2.25;1.75;;;;;1.57;98.00;98314.19;4960625;28;108068;-71
2023/01/08 03:01:34;;;;;;;;;1.00;1.00;;;;;1.62;98.02;98329.72;4969921;28;103517;-71
2023/01/08 03:04:06;;;;;;;;;3.50;3.00;;;;;1.57;97.48;98332.00;4965996;28;102105;-70
2023/01/08 03:06:34;;;;;;;;;11.25;5.00;;;;;1.49;97.53;98324.75;4977725;27;102380;-71
2023/01/08 03:09:01;;;;;;;;;17.25;14.00;;;;;1.33;97.84;98319.25;4967543;28;104019;-69
2023/01/08 03:11:40;;;;;;;;;13.00;11.50;;;;;1.31;97.71;98321.22;4976939;28;102350;-70
2023/01/08 03:14:29;;;;;;;;;37.67;28.67;;;;;1.10;98.02;98315.31;4971116;28;105092;-70
2023/01/08 03:17:04;;;;;;;;;35.33;33.33;;;;;0.93;98.87;98316.97;4976190;27;102152;-70
2023/01/08 03:19:40;;;;;;;;;47.33;39.33;;;;;0.76;99.65;98321.25;4965845;28;108254;-70
2023/01/08 03:22:14;;;;;;;;;53.67;43.00;;;;;0.78;99.40;98316.59;4971548;27;102216;-70
2023/01/08 03:24:45;;;;;;;;;48.00;39.00;;;;;0.75;99.06;98308.94;4970822;27;102097;-69
2023/01/08 03:27:17;;;;;;;;;35.00;26.00;;;;;0.78;99.44;98313.09;4969737;28;105254;-71
2023/01/08 03:29:48;;;;;;;;;20.67;17.67;;;;;0.76;100.00;98299.13;4974879;28;103418;-70
2023/01/08 03:32:17;;;;;;;;;15.50;12.75;;;;;0.79;98.87;98304.97;4964669;28;102614;-70
2023/01/08 03:34:47;;;;;;;;;20.00;17.00;;;;;0.74;98.50;98307.25;4955361;28;104413;-70
2023/01/08 03:37:19;;;;;;;;;20.00;14.00;;;;;0.67;98.86;98311.47;4979035;27;102085;-71
2023/01/08 03:40:03;;;;;;;;;14.75;12.25;;;;;0.64;98.07;98313.56;4974940;27;104166;-69
2023/01/08 03:42:31;;;;;;;;;33.00;27.00;;;;;0.51;98.63;98308.59;4978685;28;102197;-69
2023/01/08 03:45:02;;;;;;;;;34.00;30.67;;;;;0.46;99.28;98308.19;4981378;28;102628;-70
2023/01/08 03:47:31;;;;;;;;;26.33;25.00;;;;;0.44;99.29;98305.69;4980182;28;101995;-70
2023/01/08 03:50:02;;;;;;;;;37.33;27.33;;;;;0.37;99.69;98303.72;4976898;28;108696;-71
2023/01/08 03:52:31;;;;;;;;;30.67;25.67;;;;;0.29;99.81;98296.47;4980834;27;105076;-70
2023/01/08 03:54:59;;;;;;;;;21.00;18.33;;;;;0.34;100.00;98312.84;4983270;28;102430;-70
2023/01/08 03:57:26;;;;;;;;;17.00;13.67;;;;;0.36;100.00;98302.88;4977661;28;102438;-70
2023/01/08 03:59:53;;;;;;;;;21.33;14.33;;;;;0.36;100.00;98297.56;4978341;28;104007;-70
2023/01/08 04:02:19;;;;;;;;;9.50;8.00;;;;;0.31;99.02;98297.19;4968055;27;102519;-70
2023/01/08 04:04:47;;;;;;;;;6.00;6.00;;;;;0.26;97.72;98303.91;4971682;28;102257;-69
2023/01/08 04:07:14;;;;;;;;;8.75;8.00;;;;;0.14;97.95;98302.38;4977169;27;102021;-70
2023/01/08 04:09:41;;;;;;;;;11.00;10.50;;;;;0.07;97.23;98288.00;4967925;28;103980;-70
2023/01/08 04:12:08;;;;;;;;;25.00;20.00;;;;;-0.08;96.68;98288.44;4982027;28;102254;-69
2023/01/08 04:14:35;;;;;;;;;30.33;26.33;;;;;-0.27;97.77;98288.44;4974648;28;101942;-70
2023/01/08 04:17:02;;;;;;;;;22.67;20.00;;;;;-0.28;98.77;98292.13;4983550;27;104116;-70
2023/01/08 04:19:29;;;;;;;;;27.67;22.67;;;;;-0.33;99.30;98286.38;4973868;28;108725;-70
2023/01/08 04:21:56;;;;;;;;;19.33;13.67;;;;;-0.29;99.36;98289.59;4974312;28;102537;-70
2023/01/08 04:24:23;;;;;;;;;33.00;29.33;;;;;-0.31;99.89;98296.84;4976905;28;102390;-70
2023/01/08 04:26:50;;;;;;;;;31.33;24.67;;;;;-0.29;100.00;98290.44;4973835;28;103745;-69
2023/01/08 04:29:17;;;;;;;;;19.00;16.67;;;;;-0.26;99.98;98300.75;4972124;28;103968;-69
2023/01/08 04:31:44;;;;;;;;;12.00;11.00;;;;;-0.22;100.00;98296.84;4970586;27;103808;-69
2023/01/08 04:34:11;;;;;;;;;8.67;8.67;;;;;-0.18;100.00;98300.88;4977394;27;102175;-70
2023/01/08 04:36:38;;;;;;;;;11.67;9.00;;;;;-0.19;100.00;98296.59;4974050;28;102874;-69
2023/01/08 04:39:06;;;;;;;;;8.33;8.00;;;;;-0.16;100.00;98296.28;4974874;28;104261;-71
2023/01/08 04:41:33;;;;;;;;;4.00;4.00;;;;;-0.19;99.84;98290.44;4972052;28;104426;-72
2023/01/08 04:44:03;;;;;;;;;4.33;4.00;;;;;-0.25;99.09;98289.16;4980517;27;102843;-69
2023/01/08 04:46:30;;;;;;;;;27.33;26.00;;;;;-0.53;98.10;98277.56;4975717;28;102226;-70
2023/01/08 04:48:57;;;;;;;;;28.67;22.67;;;;;-0.57;98.03;98285.94;4965929;28;104025;-70
2023/01/08 04:51:25;;;;;;;;;25.33;23.00;;;;;-0.65;98.56;98278.69;4955699;28;102407;-69
2023/01/08 04:53:52;;;;;;;;;16.00;15.33;;;;;-0.62;98.87;98277.56;4973229;28;102406;-69
2023/01/08 04:56:19;;;;;;;;;40.67;30.67;;;;;-0.74;99.60;98276.03;4981392;28;102634;-68
2023/01/08 04:58:46;;;;;;;;;38.00;31.00;;;;;-0.79;99.43;98272.94;4972186;28;104039;-69
2023/01/08 05:01:24;;;;;;;;;32.33;27.33;;;;;-0.86;100.00;98255.91;4975795;27;103448;-69
2023/01/08 05:03:53;;;;;;;;;73.33;54.67;;;;;-0.72;100.00;98255.50;4970726;28;102441;-69
2023/01/08 05:06:21;;;;;;;;;70.00;50.67;;;;;-0.77;100.00;98239.16;4986725;27;102211;-68
2023/01/08 05:08:48;;;;;;;;;48.00;41.33;;;;;-0.74;100.00;98247.66;4975064;27;103432;-69
2023/01/08 05:11:15;;;;;;;;;53.00;46.00;;;;;-0.72;100.00;98252.84;4974567;27;102575;-69
2023/01/08 05:13:42;;;;;;;;;70.67;52.00;;;;;-0.75;100.00;98253.94;4978639;27;102304;-69
2023/01/08 05:16:09;;;;;;;;;62.50;50.00;;;;;-0.66;100.00;98271.69;4980037;28;102292;-69
2023/01/08 05:18:36;;;;;;;;;81.00;59.25;;;;;-0.60;100.00;98265.84;4972654;27;104059;-70
2023/01/08 05:21:04;;;;;;;;;72.50;55.25;;;;;-0.53;100.00;98266.09;4980397;27;105003;-68
2023/01/08 05:23:32;;;;;;;;;49.67;43.00;;;;;-0.43;100.00;98271.41;4972769;27;102711;-68
2023/01/08 05:26:01;;;;;;;;;34.33;31.00;;;;;-0.41;100.00;98266.81;4974830;28;102504;-69
2023/01/08 05:28:29;;;;;;;;;28.33;23.67;;;;;-0.52;100.00;98259.81;4976786;28;104115;-69
2023/01/08 05:30:56;;;;;;;;;35.33;24.00;;;;;-0.52;100.00;98267.78;4977167;28;102308;-68
2023/01/08 05:33:24;;;;;;;;;15.00;12.33;;;;;-0.57;100.00;98264.72;4972606;28;106439;-70
2023/01/08 05:35:52;;;;;;;;;27.67;24.00;;;;;-0.77;100.00;98247.13;4977028;28;102175;-69
2023/01/08 05:38:18;;;;;;;;;34.67;32.33;;;;;-0.90;100.00;98256.16;4974666;27;104176;-69
2023/01/08 05:40:46;;;;;;;;;30.67;25.33;;;;;-0.87;100.00;98257.72;4971868;28;102656;-69
2023/01/08 05:43:12;;;;;;;;;29.67;27.00;;;;;-0.92;99.95;98251.97;4978661;27;102094;-68
2023/01/08 05:45:39;;;;;;;;;24.00;22.00;;;;;-0.92;100.00;98260.78;4985392;27;102558;-69
2023/01/08 05:48:07;;;;;;;;;28.67;23.00;;;;;-1.04;100.00;98234.53;4973412;28;103895;-69
2023/01/08 05:50:34;;;;;;;;;28.00;21.67;;;;;-0.98;100.00;98256.00;4969722;28;102490;-70
2023/01/08 05:53:05;;;;;;;;;35.67;29.00;;;;;-1.02;100.00;98251.13;4977570;27;102416;-69
2023/01/08 05:55:32;;;;;;;;;47.67;39.33;;;;;-1.06;100.00;98245.25;4971420;28;102018;-68
2023/01/08 05:58:03;;;;;;;;;50.67;42.00;;;;;-1.09;100.00;98248.19;4975080;27;103980;-69
2023/01/08 06:00:32;;;;;;;;;20.33;16.00;;;;;-1.18;100.00;98241.06;4978698;27;102297;-69
2023/01/08 06:02:59;;;;;;;;;54.67;45.00;;;;;-1.28;100.00;98242.00;4975967;28;104771;-68
2023/01/08 06:05:26;;;;;;;;;41.67;37.00;;;;;-1.24;100.00;98236.28;4979926;27;103001;-70
2023/01/08 06:07:53;;;;;;;;;37.67;27.33;;;;;-1.20;100.00;98236.84;4987404;27;104129;-68
2023/01/08 06:10:20;;;;;;;;;25.33;20.33;;;;;-1.16;100.00;98236.44;4978136;28;102505;-68
2023/01/08 06:12:47;;;;;;;;;20.33;18.00;;;;;-1.20;100.00;98232.38;4973110;27;102029;-68
2023/01/08 06:15:14;;;;;;;;;19.00;16.33;;;;;-1.31;100.00;98211.31;4965889;28;102277;-69
2023/01/08 06:17:41;;;;;;;;;31.00;20.00;;;;;-1.15;100.00;98243.41;4966918;27;103670;-69
2023/01/08 06:20:09;;;;;;;;;28.33;25.00;;;;;-1.15;100.00;98240.78;4973408;27;102250;-69
2023/01/08 06:22:36;;;;;;;;;34.33;30.33;;;;;-1.20;100.00;98229.72;4969064;28;101996;-67
2023/01/08 06:25:04;;;;;;;;;21.00;17.00;;;;;-1.08;100.00;98247.19;4975295;27;103762;-68
2023/01/08 06:27:31;;;;;;;;;12.67;12.67;;;;;-1.05;100.00;98248.75;4971489;27;108995;-69
2023/01/08 06:29:58;;;;;;;;;14.00;11.67;;;;;-1.04;100.00;98234.53;4973749;28;102518;-70
2023/01/08 06:32:24;;;;;;;;;8.67;7.33;;;;;-0.99;100.00;98235.75;4975185;27;103684;-68
2023/01/08 06:34:51;;;;;;;;;9.00;6.67;;;;;-0.97;100.00;98238.28;4969789;28;102276;-68
2023/01/08 06:37:18;;;;;;;;;9.00;9.00;;;;;-1.01;100.00;98253.66;4978908;28;103953;-68
2023/01/08 06:39:45;;;;;;;;;66.00;51.50;;;;;-1.17;100.00;98240.06;4977417;27;102526;-69
2023/01/08 06:42:12;;;;;;;;;64.67;45.67;;;;;-1.16;100.00;98239.09;4977994;28;102165;-69
2023/01/08 06:44:39;;;;;;;;;43.00;33.67;;;;;-1.12;100.00;98226.38;4976493;28;102559;-69
2023/01/08 06:47:06;;;;;;;;;51.67;43.00;;;;;-1.09;100.00;98213.72;4979945;28;103407;-69
2023/01/08 06:49:33;;;;;;;;;67.67;50.33;;;;;-1.16;100.00;98223.16;4984809;28;102731;-69
2023/01/08 06:52:00;;;;;;;;;72.75;53.50;;;;;-1.16;100.00;98225.81;4979389;28;102772;-68
2023/01/08 06:54:27;;;;;;;;;60.00;41.00;;;;;-1.05;100.00;98227.53;4977378;28;102186;-69
2023/01/08 06:56:54;;;;;;;;;48.33;33.67;;;;;-1.01;100.00;98232.41;4975547;28;103078;-69
2023/01/08 06:59:21;;;;;;;;;54.67;44.33;;;;;-1.10;100.00;98225.28;4978072;27;102302;-68
2023/01/08 07:01:48;;;;;;;;;63.67;46.33;;;;;-1.05;100.00;98227.53;4982075;28;102130;-69
2023/01/08 07:04:16;;;;;;;;;75.00;57.50;;;;;-1.10;100.00;98227.94;4982523;27;102459;-69
2023/01/08 07:06:44;;;;;;;;;42.00;36.67;;;;;-1.00;100.00;98228.81;4972352;27;104315;-68
2023/01/08 07:09:12;;;;;;;;;52.00;40.67;;;;;-0.91;100.00;98235.94;4970159;28;102618;-69
2023/01/08 07:11:42;;;;;;;;;29.00;25.00;;;;;-0.83;100.00;98227.28;4994121;27;104839;-68
2023/01/08 07:14:09;;;;;;;;;22.67;17.67;;;;;-0.75;100.00;98218.59;4975727;27;102088;-68
2023/01/08 07:16:36;;;;;;;;;19.00;17.33;;;;;-0.71;100.00;98215.53;4976693;27;103689;-68
2023/01/08 07:19:03;;;;;;;;;20.33;15.67;;;;;-0.69;100.00;98218.03;4978378;28;102193;-68
2023/01/08 07:21:30;;;;;;;;;32.67;28.67;;;;;-0.75;99.82;98226.56;4983962;27;102105;-69
2023/01/08 07:23:58;;;;;;;;;61.67;46.00;;;;;-0.74;100.00;98230.91;4980541;28;102934;-68
2023/01/08 07:26:25;;;;;;;;;63.33;44.67;;;;;-0.70;100.00;98232.28;4985275;27;104106;-69
2023/01/08 07:28:52;;;;;;;;;40.00;29.67;;;;;-0.61;100.00;98224.34;4979474;27;104433;-69
2023/01/08 07:31:19;;;;;;;;;38.00;24.67;;;;;-0.51;100.00;98227.00;4982435;27;104740;-68
2023/01/08 07:33:46;;;;;;;;;25.67;18.67;;;;;-0.43;100.00;98216.50;4979865;27;102368;-69
2023/01/08 07:36:14;;;;;;;;;18.33;13.33;;;;;-0.32;100.00;98204.88;4981558;28;103894;-69
2023/01/08 07:38:42;;;;;;;;;14.33;11.33;;;;;-0.25;100.00;98204.16;4980975;28;102452;-69
2023/01/08 07:41:09;;;;;;;;;35.33;29.67;;;;;-0.26;99.85;98205.13;4986893;28;102307;-67
2023/01/08 07:43:36;;;;;;;;;36.33;31.00;;;;;-0.23;99.26;98201.38;4973921;27;102239;-69
2023/01/08 07:46:03;;;;;;;;;38.33;32.67;;;;;-0.20;99.53;98199.25;4974468;28;104180;-68
2023/01/08 07:48:31;;;;;;;;;58.00;41.33;;;;;-0.16;99.75;98205.13;4981094;27;103148;-69
2023/01/08 07:51:02;;;;;;;;;51.33;41.00;;;;;-0.07;100.00;98198.94;4971282;27;102241;-69
2023/01/08 07:53:29;;;;;;;;;42.33;33.33;;;;;0.08;100.00;98192.19;4972035;27;102570;-69
2023/01/08 07:56:04;;;;;;;;;27.67;24.33;;;;;0.25;100.00;98187.91;4965256;27;104869;-69
2023/01/08 07:58:31;;;;;;;;;27.00;21.33;;;;;0.42;100.00;98176.50;4979157;27;102404;-69
2023/01/08 08:00:58;;;;;;;;;40.33;34.00;;;;;0.44;100.00;98162.06;4968853;28;102349;-69
2023/01/08 08:03:25;;;;;;;;;33.00;23.67;;;;;0.68;100.00;98169.47;4976416;28;102387;-69
2023/01/08 08:05:53;;;;;;;;;36.33;34.33;;;;;0.78;99.97;98170.25;4975416;28;104020;-70
2023/01/08 08:08:20;;;;;;;;;28.67;23.00;;;;;0.97;100.00;98174.59;4992118;28;103040;-70
2023/01/08 08:10:46;;;;;;;;;24.67;18.67;;;;;1.15;99.57;98155.97;4975599;27;102371;-69
2023/01/08 08:13:13;;;;;;;;;19.00;14.00;;;;;1.31;99.95;98156.94;4969265;27;101988;-70
2023/01/08 08:15:40;;;;;;;;;12.00;9.67;;;;;1.50;99.51;98153.25;4986340;27;103978;-70
2023/01/08 08:18:09;;;;;;;;;17.50;9.00;;;;;1.62;99.05;98149.34;4984639;27;102593;-70
2023/01/08 08:20:37;;;;;;;;;6.00;5.25;;;;;1.80;99.33;98147.47;4966869;28;102212;-71
2023/01/08 08:23:09;;;;;;;;;11.25;11.00;;;;;1.95;98.88;98134.41;4984719;27;102247;-70
2023/01/08 08:25:36;;;;;;;;;13.00;8.50;;;;;2.13;99.45;98147.66;4964236;28;109026;-71
2023/01/08 08:28:04;;;;;;;;;18.00;14.50;;;;;2.27;98.48;98144.38;4976989;28;102208;-70
2023/01/08 08:30:33;;;;;;;;;19.00;13.00;;;;;2.43;98.27;98155.13;4965930;28;102154;-70
2023/01/08 08:33:02;;;;;;;;;14.00;10.25;;;;;2.58;99.33;98148.19;4980098;27;102708;-70
2023/01/08 08:35:30;;;;;;;;;11.75;9.00;;;;;2.74;98.49;98135.88;4983677;28;111410;-71
2023/01/08 08:37:58;;;;;;;;;6.75;6.75;;;;;2.86;98.20;98140.75;4974371;28;102562;-72
2023/01/08 08:40:26;;;;;;;;;9.25;5.25;;;;;2.99;97.78;98134.94;4971499;28;102275;-72
2023/01/08 08:43:01;;;;;;;;;6.25;4.75;;;;;3.12;96.71;98133.44;4974348;27;102262;-71
2023/01/08 08:45:28;;;;;;;;;6.75;5.00;;;;;3.22;96.89;98132.44;4979047;28;103569;-71
2023/01/08 08:47:56;;;;;;;;;7.50;6.00;;;;;3.29;95.75;98131.59;4980896;28;103127;-70
2023/01/08 08:50:23;;;;;;;;;9.00;6.00;;;;;3.38;94.21;98140.44;4984918;28;102070;-71
2023/01/08 08:52:50;;;;;;;;;11.00;10.00;;;;;3.47;94.20;98147.47;4981516;28;102425;-72
2023/01/08 08:55:17;;;;;;;;;8.25;6.50;;;;;3.51;92.30;98141.63;4973903;28;104001;-71
2023/01/08 08:57:45;;;;;;;;;69.00;52.33;;;;;3.34;91.37;98139.97;4989485;27;102506;-71
2023/01/08 09:00:13;;;;;;;;;86.00;59.67;;;;;2.88;92.03;98149.41;4980589;28;102480;-71
2023/01/08 09:02:40;;;;;;;;;82.67;55.00;;;;;2.72;91.49;98146.72;4975826;28;102225;-70
2023/01/08 09:05:07;;;;;;;;;72.00;54.33;;;;;2.49;92.50;98138.47;4973158;27;103671;-71
2023/01/08 09:07:35;;;;;;;;;69.67;50.00;;;;;2.35;93.28;98131.09;4971949;28;102507;-70
2023/01/08 09:10:03;;;;;;;;;55.67;40.00;;;;;2.39;92.92;98137.75;4973925;28;102280;-70
2023/01/08 09:12:30;;;;;;;;;41.33;33.33;;;;;2.43;93.46;98140.97;4980845;27;102424;-71
2023/01/08 09:14:57;;;;;;;;;30.33;23.33;;;;;2.45;93.51;98130.94;4970083;27;103931;-70
2023/01/08 09:17:24;;;;;;;;;32.00;28.67;;;;;2.42;93.89;98121.47;4970652;28;102772;-72
2023/01/08 09:19:51;;;;;;;;;41.67;30.33;;;;;2.40;93.09;98131.44;4975979;28;102231;-71
2023/01/08 09:22:19;;;;;;;;;29.25;27.25;;;;;2.38;94.21;98119.28;4978928;27;102618;-71
2023/01/08 09:24:46;;;;;;;;;29.75;26.75;;;;;2.31;93.13;98097.72;4978663;28;103962;-70
2023/01/08 09:27:14;;;;;;;;;26.75;22.25;;;;;2.45;93.38;98105.13;4976543;27;102142;-70
2023/01/08 09:29:41;;;;;;;;;25.00;20.50;;;;;2.52;93.58;98099.97;4981272;27;102373;-72
2023/01/08 09:32:08;;;;;;;;;13.75;10.00;;;;;2.58;93.60;98094.81;4977788;27;102326;-71
2023/01/08 09:34:35;;;;;;;;;10.75;7.00;;;;;2.66;93.81;98096.66;4962366;28;104101;-72
2023/01/08 09:37:03;;;;;;;;;21.25;14.75;;;;;2.73;93.91;98084.34;4969714;28;102038;-71
2023/01/08 09:39:31;;;;;;;;;9.00;8.25;;;;;2.82;93.98;98085.19;4977681;28;102340;-71
2023/01/08 09:42:03;;;;;;;;;9.00;6.25;;;;;2.95;95.02;98077.50;4972805;28;102914;-72
2023/01/08 09:44:37;;;;;;;;;11.75;10.25;;;;;3.06;94.54;98066.50;4977506;28;107255;-71
2023/01/08 09:47:18;;;;;;;;;13.00;9.50;;;;;3.17;94.83;98068.84;4977134;28;102146;-72
2023/01/08 09:49:46;;;;;;;;;8.75;8.25;;;;;3.18;95.73;98051.81;4972527;28;102110;-71
2023/01/08 09:52:14;;;;;;;;;30.00;27.50;;;;;3.31;93.80;98056.63;4970665;28;102316;-72
2023/01/08 09:54:41;;;;;;;;;23.25;21.00;;;;;3.42;95.04;98050.97;4978446;27;104004;-71
2023/01/08 09:57:19;;;;;;;;;25.50;20.25;;;;;3.56;95.44;98031.53;4969650;27;101954;-71
2023/01/08 09:59:47;;;;;;;;;16.25;14.00;;;;;3.59;95.03;98010.66;4976290;28;102254;-70
2023/01/08 10:02:22;;;;;;;;;11.25;10.75;;;;;3.81;94.97;98013.59;4979606;28;104597;-72
2023/01/08 10:04:59;;;;;;;;;13.75;10.50;;;;;4.07;95.02;98026.69;4981920;27;103942;-71
2023/01/08 10:07:29;;;;;;;;;12.25;10.00;;;;;4.26;94.25;98023.56;4976911;28;102214;-72
2023/01/08 10:09:56;;;;;;;;;10.25;9.75;;;;;4.44;92.43;98022.31;4992696;27;102236;-71
2023/01/08 10:12:31;;;;;;;;;9.00;8.00;;;;;4.59;92.23;97998.28;4966997;28;101947;-71
2023/01/08 10:15:02;;;;;;;;;9.75;8.00;;;;;4.90;91.24;98011.63;4977039;27;103709;-70
2023/01/08 10:17:39;;;;;;;;;5.25;4.00;;;;;5.12;89.84;98008.06;4975900;28;102107;-71
2023/01/08 10:20:21;;;;;;;;;11.25;9.00;;;;;5.26;87.04;97990.34;4986562;27;102184;-72
2023/01/08 10:22:49;;;;;;;;;7.75;7.25;;;;;5.50;87.09;97994.63;4979463;28;102226;-71
2023/01/08 10:25:20;;;;;;;;;12.50;9.50;;;;;5.62;85.07;97991.31;4988546;27;103769;-71
2023/01/08 10:27:53;;;;;;;;;10.00;9.00;;;;;5.74;85.02;97983.63;4990841;27;102735;-70
2023/01/08 10:30:28;;;;;;;;;10.75;7.75;;;;;5.83;83.37;97983.34;4986082;28;102007;-71
2023/01/08 10:32:57;;;;;;;;;8.00;7.25;;;;;5.96;82.86;97976.50;4967674;28;102604;-71
2023/01/08 10:35:33;;;;;;;;;7.00;6.50;;;;;6.06;82.75;97972.53;4975840;27;103954;-70
2023/01/08 10:38:01;;;;;;;;;5.75;5.50;;;;;6.14;82.59;97971.56;4978192;28;102413;-69
2023/01/08 10:40:44;;;;;;;;;5.00;5.00;;;;;6.23;81.70;97971.28;4980857;27;102288;-70
2023/01/08 10:43:16;;;;;;;;;6.00;5.25;;;;;6.30;81.96;97962.47;4980737;27;102580;-71
2023/01/08 10:45:55;;;;;;;;;2.75;2.00;;;;;6.37;81.20;97963.38;4972906;27;104142;-69
2023/01/08 10:48:28;;;;;;;;;3.50;3.00;;;;;6.41;80.63;97959.28;4971911;28;102321;-70
2023/01/08 10:51:12;;;;;;;;;5.00;4.00;;;;;6.46;80.07;97959.53;4965766;27;102279;-70
2023/01/08 10:53:40;;;;;;;;;4.00;3.00;;;;;6.50;80.74;97972.41;4980808;27;102557;-71
2023/01/08 10:56:19;;;;;;;;;2.50;2.00;;;;;6.54;79.59;97967.47;4954924;27;104162;-71
2023/01/08 10:58:47;;;;;;;;;7.50;4.25;;;;;6.55;79.48;97963.78;4971127;27;102157;-70
2023/01/08 11:01:22;;;;;;;;;2.50;2.00;;;;;6.59;79.25;97973.94;4974721;28;102344;-70
2023/01/08 11:03:52;;;;;;;;;3.25;3.00;;;;;6.61;79.81;97961.16;4982963;28;102492;-70
2023/01/08 11:06:31;;;;;;;;;4.00;3.25;;;;;6.64;80.24;97955.41;4971138;28;103965;-70
2023/01/08 11:09:01;;;;;;;;;3.25;3.25;;;;;6.65;79.63;97962.44;4970815;28;102271;-69
2023/01/08 11:11:34;;;;;;;;;2.75;2.75;;;;;6.62;78.32;97962.81;4966050;28;102412;-70
2023/01/08 11:14:05;;;;;;;;;3.25;3.00;;;;;6.64;79.87;97962.63;4976808;28;102980;-70
2023/01/08 11:16:42;;;;;;;;;5.00;3.50;;;;;6.67;79.83;97964.91;4959327;28;108158;-69
2023/01/08 11:19:18;;;;;;;;;4.50;3.00;;;;;6.64;80.28;97933.06;4967502;27;102297;-70
2023/01/08 11:22:00;;;;;;;;;7.25;7.25;;;;;6.77;80.39;97954.69;4961346;27;102422;-70
2023/01/08 11:24:31;;;;;;;;;14.50;13.00;;;;;6.81;80.03;97945.22;4972670;28;102534;-70
2023/01/08 11:27:09;;;;;;;;;12.75;11.75;;;;;6.79;81.19;97941.06;4969366;28;103955;-70
2023/01/08 11:29:44;;;;;;;;;15.00;13.50;;;;;6.91;80.77;97934.97;4968309;28;102446;-70
2023/01/08 11:32:14;;;;;;;;;9.75;9.00;;;;;6.99;79.06;97926.75;4976662;27;102280;-69
2023/01/08 11:34:54;;;;;;;;;6.50;6.00;;;;;7.08;78.55;97932.81;4974274;27;102228;-71
2023/01/08 11:37:38;;;;;;;;;7.00;5.50;;;;;7.20;78.62;97927.75;4972292;28;105037;-70